»·PEaware :: N8295H KFAT-KVIS

N8295H :: KFAT-KVIS

FLIGHT INFORMATION

Flight Status: Arrived
Operator: Privately registered:
United States
More flights under this callsign
Pilot: Andrew R. (27652)
Aircraft: PIPER PA-28 CHEROKEE ARCHER
(P28A)
More flights by this aircraft type
Origin: KFAT Fresno Yosemite Intl
United States
Destination: KVIS Visalia Mun
United States
More flights between these airports :: More routes between these airports
Route: BULL3 VIS
File this flight plan on PilotEdge
Remarks:
Altitude:
(Current/Filed)
3,000ft
Speed:
(Current/Filed)
100kts
Departed: 26-Aug-21 04:12 PM
Arrived: 26-Aug-21 04:44 PM
Distance/Time
Traveled:
32nm/0:32
Distance/Time
To Go:
Arrived

Flight Plot

Page will automatically refresh every two minutes.

Flight plan parsing failed; only flown route is shown


Map Options




Map Legend


Flown Route
Filed Route
Departure Airport
Arrival Airport
Navaid (VOR, NDB)
Fix

Horizontal Profiles

Position Reports

Time Latitude Longitude Heading Altitude Ground
Speed
26-Aug-21 15:34 36.773446 -119.721021 306 336ft 0kts
26-Aug-21 15:35 36.773446 -119.721021 306 336ft 0kts
26-Aug-21 15:36 36.773446 -119.721021 306 336ft 0kts
26-Aug-21 15:37 36.773446 -119.721021 306 336ft 0kts
26-Aug-21 15:38 36.773446 -119.721021 306 336ft 0kts
26-Aug-21 15:39 36.773446 -119.721021 306 336ft 0kts
26-Aug-21 15:40 36.773446 -119.721021 306 336ft 0kts
26-Aug-21 15:41 36.773446 -119.721021 306 336ft 0kts
26-Aug-21 15:43 36.773446 -119.721021 306 336ft 0kts
26-Aug-21 15:44 36.773446 -119.721021 306 336ft 0kts
26-Aug-21 15:45 36.773446 -119.721021 306 336ft 0kts
26-Aug-21 15:46 36.773446 -119.721021 306 336ft 0kts
26-Aug-21 15:47 36.773446 -119.721021 306 336ft 0kts
26-Aug-21 15:48 36.773446 -119.721021 306 336ft 0kts
26-Aug-21 15:49 36.773446 -119.721021 306 336ft 0kts
26-Aug-21 15:50 36.773446 -119.721021 306 336ft 0kts
26-Aug-21 15:51 36.773446 -119.721021 306 336ft 0kts
26-Aug-21 15:52 36.773446 -119.721021 306 336ft 0kts
26-Aug-21 15:53 36.773446 -119.721021 306 336ft 0kts
26-Aug-21 15:54 36.774181 -119.721133 111 336ft 5kts
26-Aug-21 15:55 36.772963 -119.718978 113 336ft 9kts
26-Aug-21 15:56 36.772062 -119.715658 120 336ft 12kts
26-Aug-21 15:57 36.769286 -119.710803 124 336ft 20kts
26-Aug-21 15:58 36.767551 -119.705027 91 336ft 13kts
26-Aug-21 15:59 36.767976 -119.703816 339 336ft 0kts
26-Aug-21 16:00 36.767976 -119.703816 339 336ft 0kts
26-Aug-21 16:01 36.767976 -119.703817 339 336ft 0kts
26-Aug-21 16:02 36.767976 -119.703817 339 336ft 0kts
26-Aug-21 16:03 36.767976 -119.703816 339 336ft 0kts
26-Aug-21 16:04 36.767976 -119.703816 339 336ft 0kts
26-Aug-21 16:05 36.767976 -119.703816 339 336ft 0kts
26-Aug-21 16:06 36.767976 -119.703816 339 336ft 0kts
26-Aug-21 16:07 36.767976 -119.703816 339 336ft 0kts
26-Aug-21 16:08 36.767976 -119.703816 339 336ft 0kts
26-Aug-21 16:09 36.768014 -119.703833 340 336ft 2kts
26-Aug-21 16:10 36.769814 -119.705217 304 336ft 40kts
26-Aug-21 16:11 36.781664 -119.724910 307 874ft 83kts
26-Aug-21 16:12 36.795729 -119.747730 304 1655ft 85kts
26-Aug-21 16:13 36.809224 -119.771365 270 2432ft 85kts
26-Aug-21 16:14 36.790845 -119.770489 147 3124ft 93kts
26-Aug-21 16:15 36.766671 -119.751690 146 3061ft 99kts
26-Aug-21 16:16 36.740525 -119.736150 158 2957ft 107kts
26-Aug-21 16:17 36.714678 -119.720486 151 2980ft 103kts
26-Aug-21 16:18 36.689710 -119.703273 150 3010ft 102kts
26-Aug-21 16:19 36.664875 -119.685724 146 3032ft 102kts
26-Aug-21 16:20 36.640512 -119.666896 148 3020ft 105kts
26-Aug-21 16:21 36.615425 -119.649460 149 3056ft 103kts
26-Aug-21 16:22 36.590744 -119.630343 149 2978ft 103kts
26-Aug-21 16:23 36.566009 -119.613325 148 2940ft 101kts
26-Aug-21 16:24 36.541212 -119.597544 149 2967ft 98kts
26-Aug-21 16:25 36.516501 -119.581408 153 3061ft 101kts
26-Aug-21 16:26 36.491218 -119.565051 153 2948ft 102kts
26-Aug-21 16:27 36.467755 -119.548005 148 2601ft 98kts
26-Aug-21 16:28 36.443595 -119.531623 156 2306ft 100kts
26-Aug-21 16:29 36.417452 -119.518515 155 1991ft 98kts
26-Aug-21 16:30 36.395711 -119.501596 142 2064ft 87kts
26-Aug-21 16:31 36.374392 -119.486323 152 2173ft 89kts
26-Aug-21 16:32 36.352812 -119.488350 255 2088ft 99kts
26-Aug-21 16:33 36.364537 -119.517349 298 1927ft 94kts
26-Aug-21 16:34 36.381141 -119.539993 359 1851ft 92kts
26-Aug-21 16:35 36.385187 -119.517432 121 1953ft 91kts
26-Aug-21 16:36 36.372233 -119.489391 126 1920ft 93kts
26-Aug-21 16:37 36.356842 -119.463147 125 1631ft 94kts
26-Aug-21 16:38 36.342941 -119.435684 122 1071ft 94kts
26-Aug-21 16:39 36.325618 -119.413493 140 778ft 84kts
26-Aug-21 16:40 36.308218 -119.397050 134 819ft 76kts
26-Aug-21 16:41 36.299682 -119.377545 29 744ft 70kts
26-Aug-21 16:42 36.313697 -119.386731 316 298ft 41kts
26-Aug-21 16:43 36.316492 -119.388504 314 297ft 10kts

Navigation Log

Ident Type
Flight plan parsing failed, navigation log unavailable